Main page
METAR-TAF:

METAR-TAF

Airports :

Agra Airport

Agra, India

latitude: 27-09-27N, longitude: 077-57-39E, elevation: 168 m

METAR: missing

Time: 14:55 (09:25 UTC)

Forecast

The report was made 5 hours and 55 minutes ago, at 03:30 UTC
Forecast valid from 24 at 06 UTC to 24 at 18 UTC
Wind 10 kt from the Northeast
Visibility: 6000 m
Scattered clouds at a height of 2000 ft
Scattered clouds at a height of 10000 ft
Temporary
from 24 at 08 UTC to 24 at 11 UTC
Wind 15 kt from the Northeast with gusts up to 25 kt
Visibility: 4000 m
Scattered clouds at a height of 2000 ft
Few clouds at a height of 3000 ft, Cumulonimbus.
Broken clouds at a height of 9000 ft
thunderstorm, rain
Temporary
from 24 at 12 UTC to 24 at 17 UTC
Visibility: 5000 m
light rain

TAF: VIAG 240330Z 2406/2418 05010KT 6000 SCT020 SCT100 TEMPO 2408/2411 05015G25KT 4000 TSRA SCT020 FEW030CB BKN090 TEMPO 2412/2417 5000 -RA

Weather observations and forecasts of more than 4000 airports (METAR and TAF reports).

The available stations are represented by yellow and red dots on the map.

Hover mouse over dot to see the name of the station.

Then click to see weather observations and forecasts.

To change the map : click on the green buttons with a black cross to zoom in, on the green button with a dash to zoom out, or on the green arrows for adjacent maps.


METAR-TAF: